createdAt,value
2023-01-17T00:00:33.051Z,96004.39
2023-01-17T00:03:36.100Z,95996.96
2023-01-17T00:06:29.846Z,95996.40
2023-01-17T00:09:56.241Z,95998.76
2023-01-17T00:12:43.222Z,96003.95
2023-01-17T00:15:33.043Z,96009.36
2023-01-17T00:18:08.276Z,96008.11
2023-01-17T00:21:15.138Z,96005.52
2023-01-17T00:24:09.112Z,96004.83
2023-01-17T00:27:15.020Z,96003.75
2023-01-17T00:29:49.091Z,95999.05
2023-01-17T00:32:37.036Z,95994.13
2023-01-17T00:35:12.104Z,95992.05
2023-01-17T00:38:18.024Z,95997.07
2023-01-17T00:41:00.102Z,95993.02
2023-01-17T00:43:59.989Z,96003.60
2023-01-17T00:47:13.017Z,96012.47
2023-01-17T00:50:20.019Z,96017.33
2023-01-17T00:53:13.940Z,96014.27
2023-01-17T00:56:20.033Z,96008.50
2023-01-17T00:59:14.072Z,96008.84
2023-01-17T01:02:21.270Z,96012.17
2023-01-17T01:05:17.394Z,96012.02
2023-01-17T01:08:24.167Z,96011.11
2023-01-17T01:11:18.115Z,96010.59
2023-01-17T01:14:27.214Z,96012.98
2023-01-17T01:17:33.220Z,96011.61
2023-01-17T01:20:27.809Z,96001.23
2023-01-17T01:23:38.194Z,95996.78
2023-01-17T01:26:40.006Z,95981.77
2023-01-17T01:29:41.127Z,95992.83
2023-01-17T01:32:42.143Z,95976.45
2023-01-17T01:35:30.219Z,95967.95
2023-01-17T01:38:05.460Z,95974.80
2023-01-17T01:41:03.015Z,95979.19
2023-01-17T01:43:55.991Z,95978.95
2023-01-17T01:46:54.007Z,95975.23
2023-01-17T01:49:42.001Z,95965.14
2023-01-17T01:52:18.123Z,95950.84
2023-01-17T01:55:10.012Z,95948.57
2023-01-17T01:57:55.619Z,95958.78
2023-01-17T02:00:45.060Z,95956.65
2023-01-17T02:03:42.048Z,95952.37
2023-01-17T02:06:48.019Z,95944.35
2023-01-17T02:09:24.126Z,95946.09
2023-01-17T02:12:12.981Z,95944.79
2023-01-17T02:15:02.284Z,95942.94
2023-01-17T02:18:07.890Z,95946.10
2023-01-17T02:21:08.004Z,95956.52
2023-01-17T02:23:45.435Z,95947.02
2023-01-17T02:26:50.998Z,95941.77
2023-01-17T02:29:56.995Z,95944.58
2023-01-17T02:32:51.138Z,95945.07
2023-01-17T02:35:47.023Z,95950.20
2023-01-17T02:38:52.143Z,95956.40
2023-01-17T02:41:43.008Z,95955.91
2023-01-17T02:44:30.127Z,95961.86
2023-01-17T02:47:43.007Z,95961.29
2023-01-17T02:50:44.979Z,95965.88
2023-01-17T02:54:01.210Z,95965.58
2023-01-17T02:56:51.297Z,95963.83
2023-01-17T03:00:02.003Z,95958.82
2023-01-17T03:03:05.062Z,95951.20
2023-01-17T03:06:09.004Z,95957.02
2023-01-17T03:08:58.133Z,95965.30
2023-01-17T03:11:39.999Z,95964.23
2023-01-17T03:14:21.513Z,95968.52
2023-01-17T03:17:10.172Z,95974.33
2023-01-17T03:20:05.173Z,95979.58
2023-01-17T03:22:52.978Z,95978.14
2023-01-17T03:25:27.574Z,95972.30
2023-01-17T03:28:14.978Z,95978.02
2023-01-17T03:30:57.067Z,95982.23
2023-01-17T03:33:53.185Z,95984.82
2023-01-17T03:36:41.834Z,95986.41
2023-01-17T03:39:23.119Z,95984.86
2023-01-17T03:42:05.110Z,95989.57
2023-01-17T03:44:46.289Z,95993.12
2023-01-17T03:47:28.082Z,95998.14
2023-01-17T03:50:12.124Z,96000.48
2023-01-17T03:52:52.993Z,95997.44
2023-01-17T03:55:40.971Z,95999.98
2023-01-17T03:58:16.686Z,96001.61
2023-01-17T04:01:06.283Z,95997.52
2023-01-17T04:03:42.612Z,96006.32
2023-01-17T04:06:31.079Z,96007.52
2023-01-17T04:09:12.960Z,96003.23
2023-01-17T04:11:54.251Z,95999.05
2023-01-17T04:14:35.985Z,96003.42
2023-01-17T04:17:19.268Z,96007.73
2023-01-17T04:20:01.158Z,96014.36
2023-01-17T04:22:43.261Z,96020.66
2023-01-17T04:25:24.983Z,96018.71
2023-01-17T04:28:14.970Z,96020.10
2023-01-17T04:30:49.615Z,96019.92
2023-01-17T04:33:37.984Z,96015.77
2023-01-17T04:36:26.153Z,96016.77
2023-01-17T04:39:08.148Z,96020.48
2023-01-17T04:42:03.161Z,96023.98
2023-01-17T04:44:51.178Z,96027.89
2023-01-17T04:47:26.233Z,96022.74
2023-01-17T04:50:14.975Z,96019.78
2023-01-17T04:52:57.170Z,96021.21
2023-01-17T04:55:51.984Z,96020.68
2023-01-17T04:58:39.963Z,96016.94
2023-01-17T05:01:23.056Z,96020.19
2023-01-17T05:04:10.981Z,96015.23
2023-01-17T05:06:46.219Z,96016.18
2023-01-17T05:09:34.158Z,96014.65
2023-01-17T05:12:09.183Z,96019.97
2023-01-17T05:14:57.119Z,96020.94
2023-01-17T05:17:39.124Z,96020.45
2023-01-17T05:20:35.939Z,96016.20
2023-01-17T05:23:24.154Z,96018.72
2023-01-17T05:25:59.240Z,96021.32
2023-01-17T05:28:46.973Z,96028.15
2023-01-17T05:31:22.269Z,96027.88
2023-01-17T05:34:10.969Z,96031.37
2023-01-17T05:36:46.205Z,96032.19
2023-01-17T05:39:34.142Z,96034.02
2023-01-17T05:42:16.139Z,96030.37
2023-01-17T05:45:11.153Z,96026.80
2023-01-17T05:48:07.989Z,96023.21
2023-01-17T05:51:03.092Z,96022.33
2023-01-17T05:53:51.168Z,96021.20
2023-01-17T05:56:26.121Z,96016.73
2023-01-17T05:59:14.324Z,96012.52
2023-01-17T06:01:50.260Z,96007.63
2023-01-17T06:04:39.991Z,96001.31
2023-01-17T06:07:15.181Z,96000.00
2023-01-17T06:10:03.008Z,96009.69
2023-01-17T06:12:38.078Z,96023.25
2023-01-17T06:15:25.951Z,96023.55
2023-01-17T06:18:01.062Z,96025.84
2023-01-17T06:20:48.950Z,96027.31
2023-01-17T06:23:24.070Z,96033.30
2023-01-17T06:26:12.948Z,96033.98
2023-01-17T06:28:54.932Z,96031.41
2023-01-17T06:31:49.947Z,96032.44
2023-01-17T06:34:37.986Z,96032.11
2023-01-17T06:37:13.082Z,96031.65
2023-01-17T06:40:00.952Z,96029.70
2023-01-17T06:42:36.068Z,96027.38
2023-01-17T06:45:24.931Z,96026.33
2023-01-17T06:48:06.025Z,96024.13
2023-01-17T06:51:01.029Z,96018.61
2023-01-17T06:53:48.963Z,96016.92
2023-01-17T06:56:24.102Z,96014.70
2023-01-17T06:59:11.968Z,96011.15
2023-01-17T07:01:47.237Z,96012.06
2023-01-17T07:04:35.012Z,96011.45
2023-01-17T07:07:10.143Z,96014.10
2023-01-17T07:09:57.978Z,96012.13
2023-01-17T07:12:39.972Z,96010.83
2023-01-17T07:15:34.979Z,96016.50
2023-01-17T07:18:27.013Z,96010.46
2023-01-17T07:21:08.241Z,96012.59
2023-01-17T07:23:49.910Z,96009.34
2023-01-17T07:26:31.057Z,96012.80
2023-01-17T07:29:11.927Z,96012.08
2023-01-17T07:32:02.923Z,96012.65
2023-01-17T07:34:43.920Z,96012.61
2023-01-17T07:37:32.972Z,96016.22
2023-01-17T07:40:07.909Z,96017.63
2023-01-17T07:42:55.941Z,96019.62
2023-01-17T07:45:30.462Z,96022.42
2023-01-17T07:48:17.990Z,96025.50
2023-01-17T07:51:04.932Z,96020.91
2023-01-17T07:53:46.092Z,96024.30
2023-01-17T07:56:27.975Z,96029.34
2023-01-17T07:59:09.057Z,96034.00
2023-01-17T08:01:50.200Z,96043.98
2023-01-17T08:04:35.481Z,96046.67
2023-01-17T08:07:16.989Z,96046.13
2023-01-17T08:09:58.084Z,96046.24
2023-01-17T08:12:38.989Z,96044.96
2023-01-17T08:15:21.103Z,96054.79
2023-01-17T08:18:04.927Z,96061.86
2023-01-17T08:20:52.930Z,96064.16
2023-01-17T08:23:27.436Z,96064.14
2023-01-17T08:26:14.964Z,96068.22
2023-01-17T08:28:57.080Z,96072.58
2023-01-17T08:31:46.925Z,96073.55
2023-01-17T08:34:22.127Z,96072.14
2023-01-17T08:37:09.920Z,96076.33
2023-01-17T08:39:50.914Z,96079.70
2023-01-17T08:42:37.437Z,96085.17
2023-01-17T08:45:20.016Z,96088.00
2023-01-17T08:48:14.915Z,96090.83
2023-01-17T08:51:06.924Z,96093.39
2023-01-17T08:53:42.624Z,96100.94
2023-01-17T08:56:32.943Z,96107.35
2023-01-17T08:59:08.091Z,96107.80
2023-01-17T09:01:56.033Z,96120.95
2023-01-17T09:04:38.286Z,96128.85
2023-01-17T09:07:34.934Z,96128.73
2023-01-17T09:10:23.921Z,96134.70
2023-01-17T09:12:58.047Z,96142.55
2023-01-17T09:15:46.003Z,96138.73
2023-01-17T09:18:28.928Z,96137.73
2023-01-17T09:21:33.903Z,96142.77
2023-01-17T09:24:28.916Z,96146.73
2023-01-17T09:27:16.899Z,96150.62
2023-01-17T09:29:58.909Z,96144.04
2023-01-17T09:32:54.011Z,96144.38
2023-01-17T09:35:41.940Z,96146.92
2023-01-17T09:38:23.924Z,96140.52
2023-01-17T09:41:26.900Z,96141.83
2023-01-17T09:44:07.030Z,96143.94
2023-01-17T09:47:07.664Z,96136.73
2023-01-17T09:50:02.925Z,96133.56
2023-01-17T09:52:50.858Z,96134.95
2023-01-17T09:55:26.079Z,96134.08
2023-01-17T09:58:18.907Z,96132.00
2023-01-17T10:01:03.921Z,96134.63
2023-01-17T10:04:23.014Z,96133.37
2023-01-17T10:07:29.038Z,96129.64
2023-01-17T10:10:27.017Z,96126.30
2023-01-17T10:13:11.979Z,96125.64
2023-01-17T10:16:28.006Z,96131.00
2023-01-17T10:19:37.929Z,96136.33
2023-01-17T10:22:44.034Z,96140.66
2023-01-17T10:25:29.020Z,96143.51
2023-01-17T10:28:20.920Z,96146.87
2023-01-17T10:31:09.018Z,96154.16
2023-01-17T10:34:00.912Z,96143.60
2023-01-17T10:36:49.898Z,96146.72
2023-01-17T10:39:37.874Z,96148.48
2023-01-17T10:42:57.941Z,96149.14
2023-01-17T10:46:03.051Z,96146.58
2023-01-17T10:48:59.927Z,96142.96
2023-01-17T10:51:56.886Z,96143.46
2023-01-17T10:55:03.962Z,96146.11
2023-01-17T10:57:54.255Z,96151.16
2023-01-17T11:00:36.046Z,96158.34
2023-01-17T11:03:27.909Z,96163.84
2023-01-17T11:06:27.871Z,96159.83
2023-01-17T11:09:18.881Z,96159.20
2023-01-17T11:11:57.022Z,96164.46
2023-01-17T11:15:09.183Z,96164.73
2023-01-17T11:18:15.424Z,96162.13
2023-01-17T11:20:51.409Z,96159.52
2023-01-17T11:23:46.885Z,96161.07
2023-01-17T11:26:34.985Z,96158.85
2023-01-17T11:29:43.111Z,96159.79
2023-01-17T11:32:27.893Z,96159.48
2023-01-17T11:35:17.030Z,96167.02
2023-01-17T11:37:58.917Z,96161.86
2023-01-17T11:40:47.175Z,96160.58
2023-01-17T11:43:33.885Z,96160.95
2023-01-17T11:46:24.306Z,96159.58
2023-01-17T11:49:07.874Z,96165.82
2023-01-17T11:51:49.036Z,96162.32
2023-01-17T11:54:32.892Z,96158.52
2023-01-17T11:57:33.877Z,96155.37
2023-01-17T12:00:23.542Z,96157.89
2023-01-17T12:03:26.914Z,96156.21
2023-01-17T12:06:56.830Z,96154.80
2023-01-17T12:10:26.879Z,96156.29
2023-01-17T12:13:25.953Z,96153.50
2023-01-17T12:16:36.963Z,96156.70
2023-01-17T12:19:32.570Z,96157.64
2023-01-17T12:22:33.947Z,96153.20
2023-01-17T12:25:33.093Z,96145.05
2023-01-17T12:29:14.873Z,96144.10
2023-01-17T12:32:26.882Z,96136.29
2023-01-17T12:35:12.869Z,96131.25
2023-01-17T12:38:23.744Z,96135.41
2023-01-17T12:41:32.877Z,96140.55
2023-01-17T12:44:08.006Z,96143.89
2023-01-17T12:47:10.880Z,96148.34
2023-01-17T12:50:17.867Z,96149.02
2023-01-17T12:53:12.891Z,96148.20
2023-01-17T12:56:08.869Z,96151.66
2023-01-17T12:59:05.924Z,96151.56
2023-01-17T13:01:43.392Z,96155.31
2023-01-17T13:04:57.453Z,96155.00
2023-01-17T13:07:39.081Z,96156.70
2023-01-17T13:10:47.899Z,96158.41
2023-01-17T13:13:32.208Z,96158.52
2023-01-17T13:16:21.948Z,96159.96
2023-01-17T13:18:59.010Z,96165.16
2023-01-17T13:21:46.903Z,96165.52
2023-01-17T13:24:33.016Z,96165.89
2023-01-17T13:27:18.887Z,96169.55
2023-01-17T13:30:33.138Z,96178.78
2023-01-17T13:33:40.880Z,96184.92
2023-01-17T13:36:43.889Z,96188.95
2023-01-17T13:39:56.953Z,96192.14
2023-01-17T13:43:16.893Z,96196.01
2023-01-17T13:45:56.230Z,96195.67
2023-01-17T13:48:47.854Z,96198.60
2023-01-17T13:52:16.899Z,96198.66
2023-01-17T13:55:10.855Z,96207.48
2023-01-17T13:57:46.931Z,96210.02
2023-01-17T14:00:34.888Z,96209.97
2023-01-17T14:03:16.944Z,96208.70
2023-01-17T14:06:04.862Z,96207.46
2023-01-17T14:08:52.039Z,96214.28
2023-01-17T14:11:32.861Z,96215.58
2023-01-17T14:14:54.856Z,96227.70
2023-01-17T14:17:45.414Z,96233.88
2023-01-17T14:20:38.847Z,96241.73
2023-01-17T14:23:31.967Z,96252.25
2023-01-17T14:26:34.387Z,96254.89
2023-01-17T14:29:56.054Z,96254.21
2023-01-17T14:32:50.859Z,96250.02
2023-01-17T14:35:31.953Z,96250.88
2023-01-17T14:38:40.855Z,96251.67
2023-01-17T14:41:38.873Z,96254.29
2023-01-17T14:44:26.989Z,96259.90
2023-01-17T14:47:08.867Z,96262.73
2023-01-17T14:50:23.951Z,96269.95
2023-01-17T14:53:17.867Z,96277.52
2023-01-17T14:56:03.877Z,96288.05
2023-01-17T14:58:58.908Z,96298.64
2023-01-17T15:02:01.783Z,96308.48
2023-01-17T15:04:41.343Z,96309.02
2023-01-17T15:07:29.884Z,96310.09
2023-01-17T15:10:04.986Z,96311.30
2023-01-17T15:12:55.836Z,96304.55
2023-01-17T15:15:40.179Z,96304.85
2023-01-17T15:18:32.851Z,96310.84
2023-01-17T15:21:22.866Z,96320.34
2023-01-17T15:24:07.857Z,96319.63
2023-01-17T15:26:49.985Z,96324.14
2023-01-17T15:29:32.870Z,96327.30
2023-01-17T15:32:23.872Z,96329.06
2023-01-17T15:35:18.846Z,96329.05
2023-01-17T15:38:07.843Z,96327.52
2023-01-17T15:40:49.038Z,96326.35
2023-01-17T15:43:42.852Z,96326.91
2023-01-17T15:46:47.163Z,96329.30
2023-01-17T15:49:35.875Z,96332.38
2023-01-17T15:52:19.080Z,96331.48
2023-01-17T15:55:22.244Z,96338.89
2023-01-17T15:58:04.856Z,96341.82
2023-01-17T16:00:54.138Z,96338.95
2023-01-17T16:03:44.843Z,96335.23
2023-01-17T16:06:52.603Z,96333.80
2023-01-17T16:09:39.048Z,96331.02
2023-01-17T16:12:27.061Z,96327.42
2023-01-17T16:15:12.239Z,96330.51
2023-01-17T16:17:56.882Z,96327.79
2023-01-17T16:20:43.535Z,96317.79
2023-01-17T16:23:24.845Z,96310.17
2023-01-17T16:26:06.210Z,96305.61
2023-01-17T16:28:50.842Z,96304.70
2023-01-17T16:31:32.695Z,96300.90
2023-01-17T16:34:19.999Z,96298.20
2023-01-17T16:37:16.829Z,96291.33
2023-01-17T16:40:07.590Z,96287.30
2023-01-17T16:42:42.672Z,96290.68
2023-01-17T16:45:31.868Z,96291.02
2023-01-17T16:48:18.973Z,96292.26
2023-01-17T16:51:12.862Z,96287.08
2023-01-17T16:53:50.916Z,96285.81
2023-01-17T16:56:40.836Z,96274.14
2023-01-17T16:59:16.046Z,96270.07
2023-01-17T17:02:15.355Z,96269.36
2023-01-17T17:04:58.993Z,96270.59
2023-01-17T17:07:51.985Z,96277.03
2023-01-17T17:10:38.008Z,96271.79
2023-01-17T17:13:34.904Z,96266.52
2023-01-17T17:17:01.381Z,96267.98
2023-01-17T17:19:49.856Z,96261.36
2023-01-17T17:22:30.977Z,96275.68
2023-01-17T17:25:14.858Z,96285.20
2023-01-17T17:28:03.324Z,96271.14
2023-01-17T17:30:57.878Z,96258.58
2023-01-17T17:33:42.989Z,96266.30
2023-01-17T17:37:03.950Z,96268.06
2023-01-17T17:39:49.167Z,96255.40
2023-01-17T17:42:31.254Z,96247.98
2023-01-17T17:45:12.996Z,96256.13
2023-01-17T17:47:54.899Z,96268.27
2023-01-17T17:50:36.285Z,96270.67
2023-01-17T17:53:18.392Z,96281.02
2023-01-17T17:56:09.823Z,96275.01
2023-01-17T17:58:48.709Z,96266.08
2023-01-17T18:02:04.538Z,96258.60
2023-01-17T18:04:54.973Z,96250.36
2023-01-17T18:07:39.976Z,96247.36
2023-01-17T18:10:24.887Z,96256.77
2023-01-17T18:13:16.976Z,96259.09
2023-01-17T18:16:03.649Z,96257.88
2023-01-17T18:19:12.023Z,96257.35
2023-01-17T18:21:57.810Z,96260.15
2023-01-17T18:24:40.213Z,96261.48
2023-01-17T18:27:21.848Z,96269.36
2023-01-17T18:30:14.606Z,96275.40
2023-01-17T18:32:56.935Z,96271.59
2023-01-17T18:35:38.973Z,96272.14
2023-01-17T18:38:19.843Z,96278.14
2023-01-17T18:41:34.833Z,96285.76
2023-01-17T18:44:38.787Z,96290.18
2023-01-17T18:47:29.837Z,96294.52
2023-01-17T18:50:24.831Z,96295.29
2023-01-17T18:53:12.820Z,96301.62
2023-01-17T18:56:03.163Z,96307.08
2023-01-17T18:58:47.986Z,96310.37
2023-01-17T19:01:54.128Z,96312.65
2023-01-17T19:04:35.477Z,96317.10
2023-01-17T19:07:41.158Z,96311.61
2023-01-17T19:10:20.571Z,96306.09
2023-01-17T19:13:11.752Z,96301.61
2023-01-17T19:15:48.423Z,96297.40
2023-01-17T19:18:36.820Z,96297.80
2023-01-17T19:21:13.479Z,96288.63
2023-01-17T19:24:04.344Z,96283.43
2023-01-17T19:26:46.940Z,96283.34
2023-01-17T19:29:30.251Z,96289.15
2023-01-17T19:32:13.983Z,96283.04
2023-01-17T19:35:00.807Z,96281.25
2023-01-17T19:37:50.942Z,96279.20
2023-01-17T19:40:42.002Z,96280.24
2023-01-17T19:43:36.820Z,96278.30
2023-01-17T19:46:28.365Z,96281.64
2023-01-17T19:49:05.958Z,96289.31
2023-01-17T19:51:58.812Z,96286.91
2023-01-17T19:54:42.699Z,96282.84
2023-01-17T19:57:41.843Z,96288.35
2023-01-17T20:00:30.233Z,96292.80
2023-01-17T20:03:25.825Z,96289.79
2023-01-17T20:06:15.339Z,96288.81
2023-01-17T20:08:51.265Z,96285.56
2023-01-17T20:11:38.953Z,96281.64
2023-01-17T20:14:14.348Z,96280.52
2023-01-17T20:17:01.923Z,96270.14
2023-01-17T20:19:42.970Z,96266.30
2023-01-17T20:22:24.104Z,96263.73
2023-01-17T20:25:12.890Z,96260.74
2023-01-17T20:27:47.227Z,96248.90
2023-01-17T20:30:36.804Z,96243.73
2023-01-17T20:34:39.867Z,96243.67
2023-01-17T20:42:16.001Z,96234.58
2023-01-17T20:45:10.869Z,96232.36
2023-01-17T20:48:05.465Z,96231.70
2023-01-17T20:50:51.370Z,96239.64
2023-01-17T20:53:33.158Z,96240.33
2023-01-17T20:56:17.330Z,96243.08
2023-01-17T20:59:03.904Z,96240.33
2023-01-17T21:01:46.090Z,96235.10
2023-01-17T21:04:58.018Z,96229.58
2023-01-17T21:07:49.817Z,96231.19
2023-01-17T21:11:00.363Z,96229.61
2023-01-17T21:14:46.848Z,96230.35
2023-01-17T21:21:42.994Z,96217.42
2023-01-17T21:37:56.517Z,96212.73
2023-01-17T21:40:37.801Z,96201.02
2023-01-17T21:44:28.988Z,96200.58
2023-01-17T21:47:24.196Z,96195.27
2023-01-17T21:54:15.419Z,96187.23
2023-01-17T21:57:20.799Z,96185.64
2023-01-17T22:00:02.804Z,96186.27
2023-01-17T22:02:43.783Z,96193.88
2023-01-17T22:05:25.056Z,96191.77
2023-01-17T22:08:19.004Z,96188.80
2023-01-17T22:11:01.111Z,96184.06
2023-01-17T22:13:43.995Z,96182.52
2023-01-17T22:16:37.816Z,96179.28
2023-01-17T22:19:18.805Z,96168.33
2023-01-17T22:22:01.317Z,96159.46
2023-01-17T22:24:44.430Z,96155.27
2023-01-17T22:27:34.386Z,96143.97
2023-01-17T22:30:29.868Z,96139.13
2023-01-17T22:33:19.740Z,96131.32
2023-01-17T22:36:02.193Z,96120.13
2023-01-17T22:38:50.333Z,96106.44
2023-01-17T22:41:33.863Z,96109.27
2023-01-17T22:44:21.981Z,96121.58
2023-01-17T22:46:57.098Z,96122.86
2023-01-17T22:49:44.973Z,96117.33
2023-01-17T22:52:27.930Z,96122.38
2023-01-17T22:55:23.773Z,96129.43
2023-01-17T22:58:11.895Z,96125.98
2023-01-17T23:00:47.628Z,96123.52
2023-01-17T23:03:35.822Z,96118.13
2023-01-17T23:06:19.915Z,96113.58
2023-01-17T23:09:11.790Z,96118.11
2023-01-17T23:11:58.431Z,96117.53
2023-01-17T23:15:13.996Z,96112.31
2023-01-17T23:18:20.775Z,96102.92
2023-01-17T23:20:55.164Z,96096.35
2023-01-17T23:23:45.830Z,96091.11
2023-01-17T23:26:21.839Z,96085.56
2023-01-17T23:29:09.780Z,96082.52
2023-01-17T23:31:44.169Z,96082.73
2023-01-17T23:34:31.754Z,96079.93
2023-01-17T23:37:12.776Z,96075.10
2023-01-17T23:39:53.891Z,96068.52
2023-01-17T23:42:52.765Z,96061.20
2023-01-17T23:45:33.889Z,96050.17
2023-01-17T23:48:17.778Z,96045.92
2023-01-17T23:51:17.756Z,96035.48
2023-01-17T23:53:57.573Z,96026.98
2023-01-17T23:57:06.581Z,96018.97
2023-01-17T23:59:45.498Z,96014.67
